sensor_id;sensor_type;location;lat;lon;timestamp;P1;durP1;ratioP1;P2;durP2;ratioP2
69703;SDS011;56967;43.538;-5.646;2022-08-04T00:05:12;5.68;;;2.10;;
69703;SDS011;56967;43.538;-5.646;2022-08-04T00:10:51;6.90;;;2.42;;
69703;SDS011;56967;43.538;-5.646;2022-08-04T00:13:22;5.97;;;2.00;;
69703;SDS011;56967;43.538;-5.646;2022-08-04T00:15:52;6.15;;;1.98;;
69703;SDS011;56967;43.538;-5.646;2022-08-04T00:18:26;7.00;;;1.90;;
69703;SDS011;56967;43.538;-5.646;2022-08-04T00:20:58;9.45;;;2.17;;
69703;SDS011;56967;43.538;-5.646;2022-08-04T00:23:28;6.72;;;1.80;;
69703;SDS011;56967;43.538;-5.646;2022-08-04T00:25:57;8.02;;;2.67;;
69703;SDS011;56967;43.538;-5.646;2022-08-04T00:28:23;6.20;;;1.75;;
69703;SDS011;56967;43.538;-5.646;2022-08-04T00:30:49;6.63;;;2.13;;
69703;SDS011;56967;43.538;-5.646;2022-08-04T00:33:18;10.35;;;2.40;;
69703;SDS011;56967;43.538;-5.646;2022-08-04T00:35:45;6.82;;;2.20;;
69703;SDS011;56967;43.538;-5.646;2022-08-04T00:38:12;9.35;;;2.67;;
69703;SDS011;56967;43.538;-5.646;2022-08-04T00:40:44;13.50;;;2.53;;
69703;SDS011;56967;43.538;-5.646;2022-08-04T00:43:30;12.00;;;2.58;;
69703;SDS011;56967;43.538;-5.646;2022-08-04T00:52:02;11.23;;;2.63;;
69703;SDS011;56967;43.538;-5.646;2022-08-04T00:54:56;8.38;;;2.33;;
69703;SDS011;56967;43.538;-5.646;2022-08-04T01:00:14;7.18;;;2.10;;
69703;SDS011;56967;43.538;-5.646;2022-08-04T01:06:28;11.82;;;2.30;;
69703;SDS011;56967;43.538;-5.646;2022-08-04T01:11:37;8.90;;;2.22;;
69703;SDS011;56967;43.538;-5.646;2022-08-04T01:16:52;8.38;;;1.98;;
69703;SDS011;56967;43.538;-5.646;2022-08-04T01:25:02;5.72;;;2.03;;
69703;SDS011;56967;43.538;-5.646;2022-08-04T01:30:11;9.38;;;2.00;;
69703;SDS011;56967;43.538;-5.646;2022-08-04T01:32:39;8.63;;;2.22;;
69703;SDS011;56967;43.538;-5.646;2022-08-04T01:35:10;9.65;;;2.50;;
69703;SDS011;56967;43.538;-5.646;2022-08-04T01:40:36;9.90;;;2.72;;
69703;SDS011;56967;43.538;-5.646;2022-08-04T01:43:03;10.88;;;2.50;;
69703;SDS011;56967;43.538;-5.646;2022-08-04T01:45:29;9.80;;;2.60;;
69703;SDS011;56967;43.538;-5.646;2022-08-04T01:47:55;15.50;;;2.78;;
69703;SDS011;56967;43.538;-5.646;2022-08-04T01:50:21;8.27;;;2.15;;
69703;SDS011;56967;43.538;-5.646;2022-08-04T01:52:49;9.85;;;2.17;;
69703;SDS011;56967;43.538;-5.646;2022-08-04T01:55:18;11.98;;;2.72;;
69703;SDS011;56967;43.538;-5.646;2022-08-04T01:57:51;14.60;;;2.50;;
69703;SDS011;56967;43.538;-5.646;2022-08-04T02:00:23;9.48;;;2.20;;
69703;SDS011;56967;43.538;-5.646;2022-08-04T02:02:51;7.90;;;2.50;;
69703;SDS011;56967;43.538;-5.646;2022-08-04T02:05:19;11.30;;;2.30;;
69703;SDS011;56967;43.538;-5.646;2022-08-04T02:07:56;11.48;;;2.67;;
69703;SDS011;56967;43.538;-5.646;2022-08-04T02:10:42;7.85;;;1.98;;
69703;SDS011;56967;43.538;-5.646;2022-08-04T02:16:02;11.27;;;3.13;;
69703;SDS011;56967;43.538;-5.646;2022-08-04T02:22:05;7.05;;;1.80;;
69703;SDS011;56967;43.538;-5.646;2022-08-04T02:24:32;7.97;;;2.00;;
69703;SDS011;56967;43.538;-5.646;2022-08-04T02:27:06;7.20;;;2.33;;
69703;SDS011;56967;43.538;-5.646;2022-08-04T02:29:34;14.55;;;2.78;;
69703;SDS011;56967;43.538;-5.646;2022-08-04T02:32:12;9.73;;;2.15;;
69703;SDS011;56967;43.538;-5.646;2022-08-04T02:35:02;9.38;;;2.40;;
69703;SDS011;56967;43.538;-5.646;2022-08-04T02:37:33;14.18;;;2.30;;
69703;SDS011;56967;43.538;-5.646;2022-08-04T02:40:01;7.47;;;2.25;;
69703;SDS011;56967;43.538;-5.646;2022-08-04T02:42:29;10.93;;;2.90;;
69703;SDS011;56967;43.538;-5.646;2022-08-04T02:44:57;10.32;;;2.17;;
69703;SDS011;56967;43.538;-5.646;2022-08-04T02:47:24;9.40;;;2.30;;
69703;SDS011;56967;43.538;-5.646;2022-08-04T02:49:51;8.05;;;2.25;;
69703;SDS011;56967;43.538;-5.646;2022-08-04T02:52:18;11.80;;;2.50;;
69703;SDS011;56967;43.538;-5.646;2022-08-04T02:54:45;11.65;;;2.33;;
69703;SDS011;56967;43.538;-5.646;2022-08-04T02:57:12;9.45;;;2.17;;
69703;SDS011;56967;43.538;-5.646;2022-08-04T02:59:44;8.52;;;2.13;;
69703;SDS011;56967;43.538;-5.646;2022-08-04T03:02:49;8.65;;;1.80;;
69703;SDS011;56967;43.538;-5.646;2022-08-04T03:05:30;8.73;;;1.70;;
69703;SDS011;56967;43.538;-5.646;2022-08-04T03:14:21;6.88;;;1.90;;
69703;SDS011;56967;43.538;-5.646;2022-08-04T03:25:52;11.82;;;2.95;;
69703;SDS011;56967;43.538;-5.646;2022-08-04T04:00:15;9.25;;;2.22;;
69703;SDS011;56967;43.538;-5.646;2022-08-04T04:18:37;9.30;;;2.35;;
69703;SDS011;56967;43.538;-5.646;2022-08-04T04:24:06;6.32;;;2.10;;
69703;SDS011;56967;43.538;-5.646;2022-08-04T04:30:25;7.68;;;1.70;;
69703;SDS011;56967;43.538;-5.646;2022-08-04T04:33:02;8.10;;;1.90;;
69703;SDS011;56967;43.538;-5.646;2022-08-04T04:35:53;7.03;;;2.30;;
69703;SDS011;56967;43.538;-5.646;2022-08-04T04:41:19;6.15;;;1.80;;
69703;SDS011;56967;43.538;-5.646;2022-08-04T04:46:56;11.27;;;2.47;;
69703;SDS011;56967;43.538;-5.646;2022-08-04T04:49:30;12.20;;;2.40;;
69703;SDS011;56967;43.538;-5.646;2022-08-04T04:54:59;6.05;;;1.58;;
69703;SDS011;56967;43.538;-5.646;2022-08-04T04:57:34;4.88;;;1.73;;
69703;SDS011;56967;43.538;-5.646;2022-08-04T05:00:09;6.72;;;1.48;;
69703;SDS011;56967;43.538;-5.646;2022-08-04T05:19:22;6.15;;;1.60;;
69703;SDS011;56967;43.538;-5.646;2022-08-04T05:24:31;7.13;;;1.65;;
69703;SDS011;56967;43.538;-5.646;2022-08-04T05:27:02;9.05;;;2.10;;
69703;SDS011;56967;43.538;-5.646;2022-08-04T05:29:35;8.20;;;1.70;;
69703;SDS011;56967;43.538;-5.646;2022-08-04T05:32:07;8.98;;;1.80;;
69703;SDS011;56967;43.538;-5.646;2022-08-04T05:34:41;9.65;;;1.95;;
69703;SDS011;56967;43.538;-5.646;2022-08-04T05:37:14;5.18;;;1.52;;
69703;SDS011;56967;43.538;-5.646;2022-08-04T05:39:43;5.70;;;1.42;;
69703;SDS011;56967;43.538;-5.646;2022-08-04T05:42:11;5.90;;;1.40;;
69703;SDS011;56967;43.538;-5.646;2022-08-04T05:44:38;5.82;;;1.65;;
69703;SDS011;56967;43.538;-5.646;2022-08-04T05:47:06;2.67;;;1.23;;
69703;SDS011;56967;43.538;-5.646;2022-08-04T05:49:34;5.43;;;1.95;;
69703;SDS011;56967;43.538;-5.646;2022-08-04T05:52:02;4.95;;;1.70;;
69703;SDS011;56967;43.538;-5.646;2022-08-04T05:54:30;7.18;;;1.70;;
69703;SDS011;56967;43.538;-5.646;2022-08-04T05:56:57;6.65;;;1.75;;
69703;SDS011;56967;43.538;-5.646;2022-08-04T05:59:24;5.07;;;1.42;;
69703;SDS011;56967;43.538;-5.646;2022-08-04T06:01:55;8.85;;;1.55;;
69703;SDS011;56967;43.538;-5.646;2022-08-04T06:04:24;8.43;;;1.70;;
69703;SDS011;56967;43.538;-5.646;2022-08-04T06:06:55;4.22;;;1.60;;
69703;SDS011;56967;43.538;-5.646;2022-08-04T06:09:21;4.18;;;1.70;;
69703;SDS011;56967;43.538;-5.646;2022-08-04T06:11:46;7.55;;;1.50;;
69703;SDS011;56967;43.538;-5.646;2022-08-04T06:14:14;5.82;;;1.55;;
69703;SDS011;56967;43.538;-5.646;2022-08-04T06:16:41;8.10;;;1.83;;
69703;SDS011;56967;43.538;-5.646;2022-08-04T06:19:10;6.18;;;1.83;;
69703;SDS011;56967;43.538;-5.646;2022-08-04T06:21:37;5.22;;;1.42;;
69703;SDS011;56967;43.538;-5.646;2022-08-04T06:24:06;4.38;;;1.38;;
69703;SDS011;56967;43.538;-5.646;2022-08-04T06:26:37;7.50;;;1.60;;
69703;SDS011;56967;43.538;-5.646;2022-08-04T06:29:04;5.35;;;1.33;;
69703;SDS011;56967;43.538;-5.646;2022-08-04T06:31:40;6.75;;;1.50;;
69703;SDS011;56967;43.538;-5.646;2022-08-04T06:34:22;4.10;;;1.60;;
69703;SDS011;56967;43.538;-5.646;2022-08-04T06:36:49;6.80;;;1.42;;
69703;SDS011;56967;43.538;-5.646;2022-08-04T06:39:16;5.65;;;1.30;;
69703;SDS011;56967;43.538;-5.646;2022-08-04T06:41:42;3.47;;;1.40;;
69703;SDS011;56967;43.538;-5.646;2022-08-04T06:44:09;5.93;;;1.65;;
69703;SDS011;56967;43.538;-5.646;2022-08-04T06:46:36;6.72;;;1.60;;
69703;SDS011;56967;43.538;-5.646;2022-08-04T06:49:04;6.05;;;1.10;;
69703;SDS011;56967;43.538;-5.646;2022-08-04T06:51:31;6.32;;;1.50;;
69703;SDS011;56967;43.538;-5.646;2022-08-04T06:53:59;5.00;;;1.70;;
69703;SDS011;56967;43.538;-5.646;2022-08-04T06:56:24;6.72;;;1.60;;
69703;SDS011;56967;43.538;-5.646;2022-08-04T06:58:53;4.05;;;1.50;;
69703;SDS011;56967;43.538;-5.646;2022-08-04T07:01:20;5.10;;;1.60;;
69703;SDS011;56967;43.538;-5.646;2022-08-04T07:03:47;4.07;;;1.30;;
69703;SDS011;56967;43.538;-5.646;2022-08-04T07:06:13;8.30;;;1.52;;
69703;SDS011;56967;43.538;-5.646;2022-08-04T07:08:39;6.38;;;1.95;;
69703;SDS011;56967;43.538;-5.646;2022-08-04T07:11:05;5.82;;;2.20;;
69703;SDS011;56967;43.538;-5.646;2022-08-04T07:13:31;5.30;;;1.45;;
69703;SDS011;56967;43.538;-5.646;2022-08-04T07:15:57;5.35;;;2.03;;
69703;SDS011;56967;43.538;-5.646;2022-08-04T07:18:24;10.75;;;2.13;;
69703;SDS011;56967;43.538;-5.646;2022-08-04T07:20:49;9.63;;;2.72;;
69703;SDS011;56967;43.538;-5.646;2022-08-04T07:23:15;16.85;;;3.13;;
69703;SDS011;56967;43.538;-5.646;2022-08-04T07:25:50;9.20;;;4.05;;
69703;SDS011;56967;43.538;-5.646;2022-08-04T07:28:21;10.05;;;3.53;;
69703;SDS011;56967;43.538;-5.646;2022-08-04T07:30:48;9.35;;;3.75;;
69703;SDS011;56967;43.538;-5.646;2022-08-04T07:33:17;12.57;;;4.30;;
69703;SDS011;56967;43.538;-5.646;2022-08-04T07:35:44;11.57;;;3.40;;
69703;SDS011;56967;43.538;-5.646;2022-08-04T07:38:11;11.13;;;3.85;;
69703;SDS011;56967;43.538;-5.646;2022-08-04T07:40:37;8.55;;;3.25;;
69703;SDS011;56967;43.538;-5.646;2022-08-04T07:43:03;5.93;;;2.00;;
69703;SDS011;56967;43.538;-5.646;2022-08-04T07:45:29;5.70;;;1.40;;
69703;SDS011;56967;43.538;-5.646;2022-08-04T07:47:56;4.07;;;1.65;;
69703;SDS011;56967;43.538;-5.646;2022-08-04T07:50:22;6.40;;;1.60;;
69703;SDS011;56967;43.538;-5.646;2022-08-04T07:52:49;4.32;;;1.30;;
69703;SDS011;56967;43.538;-5.646;2022-08-04T07:55:15;8.77;;;1.52;;
69703;SDS011;56967;43.538;-5.646;2022-08-04T07:57:42;6.15;;;1.65;;
69703;SDS011;56967;43.538;-5.646;2022-08-04T08:00:08;7.63;;;1.90;;
69703;SDS011;56967;43.538;-5.646;2022-08-04T08:02:36;5.88;;;1.35;;
69703;SDS011;56967;43.538;-5.646;2022-08-04T08:05:03;7.88;;;1.70;;
69703;SDS011;56967;43.538;-5.646;2022-08-04T08:07:29;10.23;;;1.63;;
69703;SDS011;56967;43.538;-5.646;2022-08-04T08:09:55;7.38;;;1.60;;
69703;SDS011;56967;43.538;-5.646;2022-08-04T08:12:20;7.70;;;1.75;;
69703;SDS011;56967;43.538;-5.646;2022-08-04T08:14:47;15.40;;;3.30;;
69703;SDS011;56967;43.538;-5.646;2022-08-04T08:17:13;10.10;;;2.60;;
69703;SDS011;56967;43.538;-5.646;2022-08-04T08:19:38;10.48;;;2.15;;
69703;SDS011;56967;43.538;-5.646;2022-08-04T08:22:04;10.27;;;2.10;;
69703;SDS011;56967;43.538;-5.646;2022-08-04T08:24:30;9.43;;;2.10;;
69703;SDS011;56967;43.538;-5.646;2022-08-04T08:27:00;11.30;;;2.63;;
69703;SDS011;56967;43.538;-5.646;2022-08-04T08:29:28;9.68;;;2.15;;
69703;SDS011;56967;43.538;-5.646;2022-08-04T08:31:54;13.23;;;3.33;;
69703;SDS011;56967;43.538;-5.646;2022-08-04T08:34:20;12.73;;;2.30;;
69703;SDS011;56967;43.538;-5.646;2022-08-04T08:39:45;11.45;;;2.50;;
69703;SDS011;56967;43.538;-5.646;2022-08-04T08:56:01;7.68;;;2.17;;
69703;SDS011;56967;43.538;-5.646;2022-08-04T09:04:24;7.63;;;1.95;;
69703;SDS011;56967;43.538;-5.646;2022-08-04T09:09:52;8.90;;;4.22;;
69703;SDS011;56967;43.538;-5.646;2022-08-04T09:13:02;13.23;;;11.77;;
69703;SDS011;56967;43.538;-5.646;2022-08-04T09:15:53;12.07;;;4.45;;
69703;SDS011;56967;43.538;-5.646;2022-08-04T09:18:30;6.82;;;2.95;;
69703;SDS011;56967;43.538;-5.646;2022-08-04T09:21:03;5.72;;;2.20;;
69703;SDS011;56967;43.538;-5.646;2022-08-04T09:23:42;6.93;;;2.50;;
69703;SDS011;56967;43.538;-5.646;2022-08-04T09:42:54;10.13;;;2.67;;
69703;SDS011;56967;43.538;-5.646;2022-08-04T09:51:18;14.95;;;3.05;;
69703;SDS011;56967;43.538;-5.646;2022-08-04T09:54:18;13.18;;;3.53;;
69703;SDS011;56967;43.538;-5.646;2022-08-04T10:02:33;6.90;;;1.67;;
69703;SDS011;56967;43.538;-5.646;2022-08-04T10:05:03;8.10;;;1.90;;
69703;SDS011;56967;43.538;-5.646;2022-08-04T10:17:00;9.60;;;1.75;;
69703;SDS011;56967;43.538;-5.646;2022-08-04T10:19:25;9.38;;;1.98;;
69703;SDS011;56967;43.538;-5.646;2022-08-04T10:25:19;6.63;;;1.60;;
69703;SDS011;56967;43.538;-5.646;2022-08-04T10:27:48;9.18;;;2.00;;
69703;SDS011;56967;43.538;-5.646;2022-08-04T10:30:19;9.50;;;2.17;;
69703;SDS011;56967;43.538;-5.646;2022-08-04T10:32:57;9.75;;;1.90;;
69703;SDS011;56967;43.538;-5.646;2022-08-04T10:35:29;10.32;;;1.98;;
69703;SDS011;56967;43.538;-5.646;2022-08-04T10:40:41;5.38;;;1.48;;
69703;SDS011;56967;43.538;-5.646;2022-08-04T10:43:12;11.80;;;1.77;;
69703;SDS011;56967;43.538;-5.646;2022-08-04T10:45:46;14.18;;;1.90;;
69703;SDS011;56967;43.538;-5.646;2022-08-04T10:48:21;7.68;;;1.80;;
69703;SDS011;56967;43.538;-5.646;2022-08-04T10:54:04;8.18;;;1.42;;
69703;SDS011;56967;43.538;-5.646;2022-08-04T10:56:32;8.20;;;1.95;;
69703;SDS011;56967;43.538;-5.646;2022-08-04T10:59:08;6.57;;;1.50;;
69703;SDS011;56967;43.538;-5.646;2022-08-04T11:01:41;6.60;;;1.40;;
69703;SDS011;56967;43.538;-5.646;2022-08-04T11:06:55;6.75;;;1.58;;
69703;SDS011;56967;43.538;-5.646;2022-08-04T11:09:23;5.68;;;1.63;;
69703;SDS011;56967;43.538;-5.646;2022-08-04T11:11:53;5.78;;;1.20;;
69703;SDS011;56967;43.538;-5.646;2022-08-04T11:14:36;4.05;;;1.05;;
69703;SDS011;56967;43.538;-5.646;2022-08-04T11:17:07;7.63;;;1.73;;
69703;SDS011;56967;43.538;-5.646;2022-08-04T11:22:24;5.85;;;1.33;;
69703;SDS011;56967;43.538;-5.646;2022-08-04T11:33:30;5.40;;;1.30;;
69703;SDS011;56967;43.538;-5.646;2022-08-04T11:36:06;6.70;;;1.80;;
69703;SDS011;56967;43.538;-5.646;2022-08-04T11:41:11;5.05;;;1.70;;
69703;SDS011;56967;43.538;-5.646;2022-08-04T11:43:47;6.60;;;2.47;;
69703;SDS011;56967;43.538;-5.646;2022-08-04T11:46:25;7.88;;;1.50;;
69703;SDS011;56967;43.538;-5.646;2022-08-04T11:51:48;5.50;;;1.67;;
69703;SDS011;56967;43.538;-5.646;2022-08-04T11:54:15;7.18;;;1.40;;
69703;SDS011;56967;43.538;-5.646;2022-08-04T11:56:41;4.43;;;1.55;;
69703;SDS011;56967;43.538;-5.646;2022-08-04T11:59:07;5.93;;;1.40;;
69703;SDS011;56967;43.538;-5.646;2022-08-04T12:07:29;8.27;;;2.25;;
69703;SDS011;56967;43.538;-5.646;2022-08-04T12:15:51;6.47;;;1.80;;
69703;SDS011;56967;43.538;-5.646;2022-08-04T12:21:10;7.53;;;1.58;;
69703;SDS011;56967;43.538;-5.646;2022-08-04T12:23:42;6.22;;;1.52;;
69703;SDS011;56967;43.538;-5.646;2022-08-04T12:26:14;4.25;;;1.30;;
69703;SDS011;56967;43.538;-5.646;2022-08-04T12:28:45;6.07;;;1.63;;
69703;SDS011;56967;43.538;-5.646;2022-08-04T12:31:16;4.63;;;1.38;;
69703;SDS011;56967;43.538;-5.646;2022-08-04T12:34:05;7.28;;;1.48;;
69703;SDS011;56967;43.538;-5.646;2022-08-04T12:39:29;3.35;;;1.15;;
69703;SDS011;56967;43.538;-5.646;2022-08-04T12:44:40;5.47;;;1.20;;
69703;SDS011;56967;43.538;-5.646;2022-08-04T12:47:08;5.25;;;1.40;;
69703;SDS011;56967;43.538;-5.646;2022-08-04T12:49:36;5.88;;;1.30;;
69703;SDS011;56967;43.538;-5.646;2022-08-04T12:52:06;9.18;;;1.60;;
69703;SDS011;56967;43.538;-5.646;2022-08-04T12:54:34;6.70;;;1.40;;
69703;SDS011;56967;43.538;-5.646;2022-08-04T12:57:06;7.28;;;1.30;;
69703;SDS011;56967;43.538;-5.646;2022-08-04T12:59:39;9.82;;;1.20;;
69703;SDS011;56967;43.538;-5.646;2022-08-04T13:02:06;8.45;;;1.85;;
69703;SDS011;56967;43.538;-5.646;2022-08-04T13:05:01;4.63;;;1.30;;
69703;SDS011;56967;43.538;-5.646;2022-08-04T13:07:50;4.95;;;1.10;;
69703;SDS011;56967;43.538;-5.646;2022-08-04T13:10:16;3.72;;;1.27;;
69703;SDS011;56967;43.538;-5.646;2022-08-04T13:12:51;5.70;;;1.20;;
69703;SDS011;56967;43.538;-5.646;2022-08-04T13:15:20;5.47;;;1.10;;
69703;SDS011;56967;43.538;-5.646;2022-08-04T13:17:52;3.53;;;1.00;;
69703;SDS011;56967;43.538;-5.646;2022-08-04T13:20:29;4.78;;;1.02;;
69703;SDS011;56967;43.538;-5.646;2022-08-04T13:23:02;5.63;;;1.00;;
69703;SDS011;56967;43.538;-5.646;2022-08-04T13:25:30;3.22;;;1.00;;
69703;SDS011;56967;43.538;-5.646;2022-08-04T13:27:56;5.45;;;1.20;;
69703;SDS011;56967;43.538;-5.646;2022-08-04T13:30:23;9.63;;;1.30;;
69703;SDS011;56967;43.538;-5.646;2022-08-04T13:32:57;4.93;;;1.13;;
69703;SDS011;56967;43.538;-5.646;2022-08-04T13:35:25;6.45;;;1.13;;
69703;SDS011;56967;43.538;-5.646;2022-08-04T13:37:51;7.65;;;1.13;;
69703;SDS011;56967;43.538;-5.646;2022-08-04T13:40:20;6.90;;;1.40;;
69703;SDS011;56967;43.538;-5.646;2022-08-04T13:42:47;3.25;;;0.90;;
69703;SDS011;56967;43.538;-5.646;2022-08-04T13:45:15;3.45;;;1.10;;
69703;SDS011;56967;43.538;-5.646;2022-08-04T13:47:49;6.03;;;0.85;;
69703;SDS011;56967;43.538;-5.646;2022-08-04T13:50:20;3.78;;;0.90;;
69703;SDS011;56967;43.538;-5.646;2022-08-04T13:52:50;5.40;;;1.13;;
69703;SDS011;56967;43.538;-5.646;2022-08-04T13:55:18;6.07;;;1.30;;
69703;SDS011;56967;43.538;-5.646;2022-08-04T13:57:47;8.05;;;1.20;;
69703;SDS011;56967;43.538;-5.646;2022-08-04T14:00:17;5.32;;;1.15;;
69703;SDS011;56967;43.538;-5.646;2022-08-04T14:02:48;4.88;;;1.02;;
69703;SDS011;56967;43.538;-5.646;2022-08-04T14:05:22;7.32;;;1.15;;
69703;SDS011;56967;43.538;-5.646;2022-08-04T14:08:11;5.40;;;1.17;;
69703;SDS011;56967;43.538;-5.646;2022-08-04T14:10:42;8.73;;;1.38;;
69703;SDS011;56967;43.538;-5.646;2022-08-04T14:13:27;8.73;;;1.58;;
69703;SDS011;56967;43.538;-5.646;2022-08-04T14:15:58;6.20;;;0.82;;
69703;SDS011;56967;43.538;-5.646;2022-08-04T14:18:27;3.33;;;0.80;;
69703;SDS011;56967;43.538;-5.646;2022-08-04T14:28:54;5.70;;;1.08;;
69703;SDS011;56967;43.538;-5.646;2022-08-04T14:31:24;6.68;;;1.00;;
69703;SDS011;56967;43.538;-5.646;2022-08-04T14:33:51;6.28;;;0.80;;
69703;SDS011;56967;43.538;-5.646;2022-08-04T14:36:17;6.13;;;1.13;;
69703;SDS011;56967;43.538;-5.646;2022-08-04T14:41:12;4.20;;;0.88;;
69703;SDS011;56967;43.538;-5.646;2022-08-04T14:43:46;6.47;;;1.10;;
69703;SDS011;56967;43.538;-5.646;2022-08-04T14:46:12;4.85;;;1.00;;
69703;SDS011;56967;43.538;-5.646;2022-08-04T14:48:40;3.58;;;0.88;;
69703;SDS011;56967;43.538;-5.646;2022-08-04T14:51:24;2.97;;;0.80;;
69703;SDS011;56967;43.538;-5.646;2022-08-04T14:53:50;1.95;;;0.90;;
69703;SDS011;56967;43.538;-5.646;2022-08-04T14:56:16;4.22;;;1.00;;
69703;SDS011;56967;43.538;-5.646;2022-08-04T14:58:41;7.60;;;0.90;;
69703;SDS011;56967;43.538;-5.646;2022-08-04T15:01:09;5.63;;;0.90;;
69703;SDS011;56967;43.538;-5.646;2022-08-04T15:03:37;4.85;;;1.00;;
69703;SDS011;56967;43.538;-5.646;2022-08-04T15:06:05;8.65;;;1.50;;
69703;SDS011;56967;43.538;-5.646;2022-08-04T15:08:31;6.97;;;1.75;;
69703;SDS011;56967;43.538;-5.646;2022-08-04T15:11:00;6.57;;;1.58;;
69703;SDS011;56967;43.538;-5.646;2022-08-04T15:13:27;4.63;;;1.40;;
69703;SDS011;56967;43.538;-5.646;2022-08-04T15:15:53;5.07;;;1.60;;
69703;SDS011;56967;43.538;-5.646;2022-08-04T15:18:19;6.07;;;1.80;;
69703;SDS011;56967;43.538;-5.646;2022-08-04T15:20:45;10.07;;;2.20;;
69703;SDS011;56967;43.538;-5.646;2022-08-04T15:23:12;8.23;;;2.15;;
69703;SDS011;56967;43.538;-5.646;2022-08-04T15:25:38;7.20;;;2.05;;
69703;SDS011;56967;43.538;-5.646;2022-08-04T15:28:11;7.93;;;1.95;;
69703;SDS011;56967;43.538;-5.646;2022-08-04T15:30:40;11.38;;;2.10;;
69703;SDS011;56967;43.538;-5.646;2022-08-04T15:33:08;9.75;;;2.10;;
69703;SDS011;56967;43.538;-5.646;2022-08-04T15:35:34;7.88;;;2.25;;
69703;SDS011;56967;43.538;-5.646;2022-08-04T15:45:53;8.55;;;1.70;;
69703;SDS011;56967;43.538;-5.646;2022-08-04T15:48:24;9.48;;;1.83;;
69703;SDS011;56967;43.538;-5.646;2022-08-04T15:53:22;8.32;;;2.17;;
69703;SDS011;56967;43.538;-5.646;2022-08-04T15:55:49;8.38;;;2.00;;
69703;SDS011;56967;43.538;-5.646;2022-08-04T15:58:16;18.35;;;2.58;;
69703;SDS011;56967;43.538;-5.646;2022-08-04T16:03:47;11.98;;;2.20;;
69703;SDS011;56967;43.538;-5.646;2022-08-04T16:18:53;10.02;;;2.10;;
69703;SDS011;56967;43.538;-5.646;2022-08-04T16:21:21;12.82;;;2.45;;
69703;SDS011;56967;43.538;-5.646;2022-08-04T16:27:02;11.80;;;2.35;;
69703;SDS011;56967;43.538;-5.646;2022-08-04T16:29:03;12.32;;;2.50;;
69703;SDS011;56967;43.538;-5.646;2022-08-04T16:35:16;15.82;;;3.00;;
69703;SDS011;56967;43.538;-5.646;2022-08-04T16:37:20;9.80;;;2.50;;
69703;SDS011;56967;43.538;-5.646;2022-08-04T16:40:22;9.32;;;2.03;;
69703;SDS011;56967;43.538;-5.646;2022-08-04T16:42:52;12.52;;;2.17;;
69703;SDS011;56967;43.538;-5.646;2022-08-04T16:45:21;12.20;;;2.47;;
69703;SDS011;56967;43.538;-5.646;2022-08-04T16:50:13;9.90;;;2.17;;
69703;SDS011;56967;43.538;-5.646;2022-08-04T16:52:42;8.88;;;2.20;;
69703;SDS011;56967;43.538;-5.646;2022-08-04T16:55:08;8.43;;;2.13;;
69703;SDS011;56967;43.538;-5.646;2022-08-04T16:57:35;9.65;;;2.25;;
69703;SDS011;56967;43.538;-5.646;2022-08-04T17:00:03;10.43;;;2.33;;
69703;SDS011;56967;43.538;-5.646;2022-08-04T17:02:29;11.20;;;2.17;;
69703;SDS011;56967;43.538;-5.646;2022-08-04T17:04:55;13.38;;;2.70;;
69703;SDS011;56967;43.538;-5.646;2022-08-04T17:07:20;11.18;;;2.63;;
69703;SDS011;56967;43.538;-5.646;2022-08-04T17:09:49;11.65;;;2.42;;
69703;SDS011;56967;43.538;-5.646;2022-08-04T17:12:16;8.70;;;2.50;;
69703;SDS011;56967;43.538;-5.646;2022-08-04T17:14:42;16.70;;;2.60;;
69703;SDS011;56967;43.538;-5.646;2022-08-04T17:17:07;17.25;;;2.83;;
69703;SDS011;56967;43.538;-5.646;2022-08-04T17:19:33;15.43;;;3.33;;
69703;SDS011;56967;43.538;-5.646;2022-08-04T17:22:03;18.23;;;3.22;;
69703;SDS011;56967;43.538;-5.646;2022-08-04T17:24:33;13.38;;;2.80;;
69703;SDS011;56967;43.538;-5.646;2022-08-04T17:27:02;16.13;;;2.90;;
69703;SDS011;56967;43.538;-5.646;2022-08-04T17:29:28;14.50;;;2.88;;
69703;SDS011;56967;43.538;-5.646;2022-08-04T17:31:54;20.83;;;2.88;;
69703;SDS011;56967;43.538;-5.646;2022-08-04T17:34:20;11.73;;;2.40;;
69703;SDS011;56967;43.538;-5.646;2022-08-04T17:36:45;11.90;;;2.78;;
69703;SDS011;56967;43.538;-5.646;2022-08-04T17:39:15;12.27;;;2.30;;
69703;SDS011;56967;43.538;-5.646;2022-08-04T17:41:47;14.27;;;2.40;;
69703;SDS011;56967;43.538;-5.646;2022-08-04T17:44:18;12.85;;;2.60;;
69703;SDS011;56967;43.538;-5.646;2022-08-04T17:46:45;11.13;;;2.35;;
69703;SDS011;56967;43.538;-5.646;2022-08-04T17:54:19;16.75;;;2.60;;
69703;SDS011;56967;43.538;-5.646;2022-08-04T17:56:49;12.90;;;2.88;;
69703;SDS011;56967;43.538;-5.646;2022-08-04T18:06:52;12.48;;;2.60;;
69703;SDS011;56967;43.538;-5.646;2022-08-04T18:09:24;15.02;;;2.85;;
69703;SDS011;56967;43.538;-5.646;2022-08-04T18:11:58;9.80;;;2.97;;
69703;SDS011;56967;43.538;-5.646;2022-08-04T18:14:38;16.75;;;2.88;;
69703;SDS011;56967;43.538;-5.646;2022-08-04T18:17:09;9.93;;;2.30;;
69703;SDS011;56967;43.538;-5.646;2022-08-04T18:19:35;10.82;;;2.28;;
69703;SDS011;56967;43.538;-5.646;2022-08-04T18:22:02;11.38;;;2.70;;
69703;SDS011;56967;43.538;-5.646;2022-08-04T18:24:30;9.73;;;2.88;;
69703;SDS011;56967;43.538;-5.646;2022-08-04T18:26:57;16.08;;;2.58;;
69703;SDS011;56967;43.538;-5.646;2022-08-04T18:29:23;13.80;;;3.40;;
69703;SDS011;56967;43.538;-5.646;2022-08-04T18:31:48;14.70;;;2.95;;
69703;SDS011;56967;43.538;-5.646;2022-08-04T18:34:14;11.38;;;2.70;;
69703;SDS011;56967;43.538;-5.646;2022-08-04T18:36:39;16.45;;;3.08;;
69703;SDS011;56967;43.538;-5.646;2022-08-04T18:39:07;6.05;;;2.20;;
69703;SDS011;56967;43.538;-5.646;2022-08-04T18:41:33;12.80;;;2.63;;
69703;SDS011;56967;43.538;-5.646;2022-08-04T18:43:58;13.48;;;2.92;;
69703;SDS011;56967;43.538;-5.646;2022-08-04T18:46:24;21.13;;;3.20;;
69703;SDS011;56967;43.538;-5.646;2022-08-04T18:48:50;15.77;;;2.80;;
69703;SDS011;56967;43.538;-5.646;2022-08-04T18:51:16;14.52;;;2.50;;
69703;SDS011;56967;43.538;-5.646;2022-08-04T18:53:43;12.82;;;2.80;;
69703;SDS011;56967;43.538;-5.646;2022-08-04T18:56:10;12.57;;;2.63;;
69703;SDS011;56967;43.538;-5.646;2022-08-04T18:58:36;14.80;;;3.10;;
69703;SDS011;56967;43.538;-5.646;2022-08-04T19:01:01;14.60;;;3.28;;
69703;SDS011;56967;43.538;-5.646;2022-08-04T19:03:27;13.70;;;3.22;;
69703;SDS011;56967;43.538;-5.646;2022-08-04T19:05:53;12.55;;;3.03;;
69703;SDS011;56967;43.538;-5.646;2022-08-04T19:08:19;20.88;;;3.28;;
69703;SDS011;56967;43.538;-5.646;2022-08-04T19:10:45;16.77;;;3.38;;
69703;SDS011;56967;43.538;-5.646;2022-08-04T19:13:10;13.52;;;3.05;;
69703;SDS011;56967;43.538;-5.646;2022-08-04T19:15:36;17.80;;;3.38;;
69703;SDS011;56967;43.538;-5.646;2022-08-04T19:18:01;20.20;;;3.53;;
69703;SDS011;56967;43.538;-5.646;2022-08-04T19:20:27;15.27;;;3.28;;
69703;SDS011;56967;43.538;-5.646;2022-08-04T19:22:53;12.85;;;3.78;;
69703;SDS011;56967;43.538;-5.646;2022-08-04T19:25:19;16.67;;;2.70;;
69703;SDS011;56967;43.538;-5.646;2022-08-04T19:27:45;16.60;;;3.03;;
69703;SDS011;56967;43.538;-5.646;2022-08-04T19:30:11;17.70;;;3.60;;
69703;SDS011;56967;43.538;-5.646;2022-08-04T19:32:36;17.05;;;3.35;;
69703;SDS011;56967;43.538;-5.646;2022-08-04T19:35:02;16.45;;;2.80;;
69703;SDS011;56967;43.538;-5.646;2022-08-04T19:37:28;20.40;;;3.50;;
69703;SDS011;56967;43.538;-5.646;2022-08-04T19:39:54;17.75;;;2.78;;
69703;SDS011;56967;43.538;-5.646;2022-08-04T19:42:19;18.20;;;3.28;;
69703;SDS011;56967;43.538;-5.646;2022-08-04T19:44:45;15.70;;;3.20;;
69703;SDS011;56967;43.538;-5.646;2022-08-04T19:47:10;16.48;;;3.28;;
69703;SDS011;56967;43.538;-5.646;2022-08-04T19:49:36;11.48;;;2.40;;
69703;SDS011;56967;43.538;-5.646;2022-08-04T19:52:01;13.48;;;3.00;;
69703;SDS011;56967;43.538;-5.646;2022-08-04T19:54:27;22.08;;;3.42;;
69703;SDS011;56967;43.538;-5.646;2022-08-04T19:56:52;19.48;;;3.70;;